createdAt,value
2023-05-22T00:00:52.804Z,5.37
2023-05-22T00:02:24.767Z,5.53
2023-05-22T00:03:57.153Z,6.57
2023-05-22T00:05:32.698Z,5.77
2023-05-22T00:07:04.810Z,6.27
2023-05-22T00:08:37.048Z,6.37
2023-05-22T00:10:09.421Z,6.50
2023-05-22T00:11:41.203Z,6.30
2023-05-22T00:13:12.985Z,6.77
2023-05-22T00:14:44.761Z,7.10
2023-05-22T00:16:16.652Z,6.63
2023-05-22T00:17:51.136Z,7.93
2023-05-22T00:19:23.104Z,7.50
2023-05-22T00:20:55.278Z,8.07
2023-05-22T00:22:28.288Z,7.63
2023-05-22T00:24:04.027Z,8.73
2023-05-22T00:25:36.439Z,8.20
2023-05-22T00:27:08.162Z,8.57
2023-05-22T00:28:39.945Z,8.27
2023-05-22T00:30:12.309Z,8.10
2023-05-22T00:31:44.170Z,8.30
2023-05-22T00:33:16.116Z,7.73
2023-05-22T00:34:47.931Z,7.83
2023-05-22T00:36:19.828Z,8.40
2023-05-22T00:37:52.921Z,7.70
2023-05-22T00:39:25.529Z,8.70
2023-05-22T00:40:57.677Z,8.20
2023-05-22T00:42:29.416Z,8.07
2023-05-22T00:44:02.618Z,8.70
2023-05-22T00:45:34.432Z,8.73
2023-05-22T00:47:06.260Z,7.90
2023-05-22T00:48:38.181Z,8.23
2023-05-22T00:50:11.589Z,8.33
2023-05-22T00:51:44.104Z,8.50
2023-05-22T00:53:16.791Z,8.33
2023-05-22T00:54:52.760Z,8.83
2023-05-22T00:56:26.920Z,8.90
2023-05-22T00:57:59.010Z,9.37
2023-05-22T00:59:31.732Z,9.77
2023-05-22T01:01:03.666Z,9.33
2023-05-22T01:02:37.127Z,9.57
2023-05-22T01:04:18.618Z,9.73
2023-05-22T01:05:50.432Z,10.80
2023-05-22T01:07:23.781Z,10.93
2023-05-22T01:08:58.230Z,10.00
2023-05-22T01:10:31.791Z,11.07
2023-05-22T01:12:24.268Z,10.87
2023-05-22T01:14:10.720Z,11.37
2023-05-22T01:16:09.125Z,10.93
2023-05-22T01:18:11.003Z,11.60
2023-05-22T01:20:07.284Z,11.30
2023-05-22T01:21:46.290Z,11.87
2023-05-22T01:23:33.633Z,12.50
2023-05-22T01:25:21.027Z,13.37
2023-05-22T01:27:25.936Z,12.37
2023-05-22T01:29:34.728Z,13.40
2023-05-22T01:31:11.198Z,12.73
2023-05-22T01:32:44.823Z,13.37
2023-05-22T01:34:20.419Z,13.27
2023-05-22T01:35:55.628Z,12.50
2023-05-22T01:37:27.926Z,13.57
2023-05-22T01:39:01.476Z,12.40
2023-05-22T01:40:34.290Z,12.40
2023-05-22T01:42:06.327Z,13.30
2023-05-22T01:43:39.580Z,14.00
2023-05-22T01:45:12.173Z,12.63
2023-05-22T01:46:43.953Z,13.63
2023-05-22T01:48:16.140Z,14.30
2023-05-22T01:49:48.111Z,13.23
2023-05-22T01:51:37.787Z,13.57
2023-05-22T01:53:19.824Z,13.10
2023-05-22T01:54:58.263Z,14.10
2023-05-22T01:56:41.413Z,14.10
2023-05-22T01:58:36.194Z,14.93
2023-05-22T02:00:13.911Z,14.53
2023-05-22T02:01:51.463Z,15.33
2023-05-22T02:03:29.880Z,15.57
2023-05-22T02:05:04.422Z,15.47
2023-05-22T02:06:37.912Z,14.67
2023-05-22T02:08:11.487Z,15.43
2023-05-22T02:09:46.881Z,14.57
2023-05-22T02:11:21.558Z,15.80
2023-05-22T02:12:54.367Z,15.27
2023-05-22T02:14:26.497Z,15.83
2023-05-22T02:16:00.296Z,16.13
2023-05-22T02:17:40.202Z,14.83
2023-05-22T02:19:15.210Z,15.93
2023-05-22T02:20:47.199Z,14.90
2023-05-22T02:22:19.054Z,15.80
2023-05-22T02:23:51.064Z,15.50
2023-05-22T02:25:23.333Z,16.17
2023-05-22T02:26:55.321Z,14.50
2023-05-22T02:28:27.396Z,14.90
2023-05-22T02:29:59.119Z,16.40
2023-05-22T02:31:30.982Z,14.27
2023-05-22T02:33:05.849Z,15.90
2023-05-22T02:34:37.936Z,16.37
2023-05-22T02:36:11.121Z,15.87
2023-05-22T02:37:43.077Z,15.47
2023-05-22T02:39:15.152Z,16.73
2023-05-22T02:40:47.416Z,16.57
2023-05-22T02:42:19.634Z,16.57
2023-05-22T02:43:51.461Z,17.80
2023-05-22T02:45:23.443Z,17.77
2023-05-22T02:46:56.085Z,16.63
2023-05-22T02:48:29.176Z,18.07
2023-05-22T02:50:01.047Z,16.53
2023-05-22T02:51:32.791Z,16.60
2023-05-22T02:53:04.536Z,18.00
2023-05-22T02:54:36.300Z,17.73
2023-05-22T02:56:10.548Z,18.33
2023-05-22T02:57:43.254Z,16.10
2023-05-22T02:59:15.106Z,17.50
2023-05-22T03:00:46.965Z,18.13
2023-05-22T03:02:19.792Z,17.40
2023-05-22T03:03:54.959Z,18.53
2023-05-22T03:05:26.985Z,18.70
2023-05-22T03:06:59.047Z,18.43
2023-05-22T03:08:31.646Z,18.70
2023-05-22T03:10:03.675Z,18.37
2023-05-22T03:11:35.444Z,18.50
2023-05-22T03:13:07.260Z,17.93
2023-05-22T03:14:39.111Z,18.73
2023-05-22T03:16:11.006Z,17.50
2023-05-22T03:17:47.776Z,17.50
2023-05-22T03:19:20.437Z,18.00
2023-05-22T03:20:52.404Z,19.80
2023-05-22T03:22:24.198Z,19.17
2023-05-22T03:23:56.053Z,19.43
2023-05-22T03:25:28.025Z,20.33
2023-05-22T03:27:00.646Z,20.90
2023-05-22T03:28:40.977Z,21.73
2023-05-22T03:30:13.338Z,21.13
2023-05-22T03:31:49.304Z,20.53
2023-05-22T03:33:21.285Z,20.70
2023-05-22T03:34:54.133Z,22.40
2023-05-22T03:36:26.047Z,20.93
2023-05-22T03:37:57.928Z,21.57
2023-05-22T03:39:29.697Z,21.17
2023-05-22T03:41:06.036Z,20.83
2023-05-22T03:42:37.995Z,22.70
2023-05-22T03:44:09.932Z,20.80
2023-05-22T03:45:41.668Z,20.27
2023-05-22T03:47:16.486Z,21.23
2023-05-22T03:48:48.266Z,21.50
2023-05-22T03:50:20.126Z,21.30
2023-05-22T03:51:51.991Z,21.53
2023-05-22T03:53:23.984Z,20.80
2023-05-22T03:54:55.775Z,21.23
2023-05-22T03:56:27.514Z,22.17
2023-05-22T03:57:59.252Z,22.27
2023-05-22T03:59:31.067Z,21.27
2023-05-22T04:01:03.118Z,22.60
2023-05-22T04:02:35.674Z,22.70
2023-05-22T04:04:09.479Z,22.40
2023-05-22T04:05:41.984Z,22.53
2023-05-22T04:07:18.215Z,22.23
2023-05-22T04:08:49.932Z,23.33
2023-05-22T04:10:23.503Z,23.10
2023-05-22T04:11:55.914Z,23.90
2023-05-22T04:13:27.773Z,23.17
2023-05-22T04:14:59.627Z,24.60
2023-05-22T04:16:31.994Z,24.27
2023-05-22T04:18:03.975Z,25.83
2023-05-22T04:19:36.224Z,24.90
2023-05-22T04:21:09.652Z,26.40
2023-05-22T04:22:41.700Z,26.63
2023-05-22T04:24:14.609Z,23.33
2023-05-22T04:25:48.025Z,23.67
2023-05-22T04:27:22.486Z,24.63
2023-05-22T04:28:54.476Z,25.50
2023-05-22T04:30:26.560Z,25.47
2023-05-22T04:32:00.177Z,25.97
2023-05-22T04:33:34.277Z,24.80
2023-05-22T04:35:06.314Z,24.90
2023-05-22T04:36:38.818Z,23.40
2023-05-22T04:38:11.779Z,25.77
2023-05-22T04:39:44.204Z,25.23
2023-05-22T04:41:18.370Z,25.23
2023-05-22T04:42:54.159Z,23.40
2023-05-22T04:44:26.007Z,24.13
2023-05-22T04:45:57.766Z,25.70
2023-05-22T04:47:31.514Z,24.80
2023-05-22T04:49:04.566Z,25.57
2023-05-22T04:50:39.568Z,25.17
2023-05-22T04:52:12.074Z,26.70
2023-05-22T04:53:43.900Z,25.27
2023-05-22T04:55:16.744Z,26.10
2023-05-22T04:56:48.442Z,26.13
2023-05-22T04:58:20.596Z,26.37
2023-05-22T04:59:53.511Z,25.37
2023-05-22T05:01:28.346Z,25.83
2023-05-22T05:03:01.519Z,25.20
2023-05-22T05:04:34.273Z,26.13
2023-05-22T05:06:08.243Z,24.90
2023-05-22T05:07:40.297Z,24.93
2023-05-22T05:09:12.695Z,26.43
2023-05-22T05:10:44.484Z,26.77
2023-05-22T05:12:17.081Z,27.40
2023-05-22T05:13:48.791Z,25.23
2023-05-22T05:15:22.666Z,26.70
2023-05-22T05:16:54.844Z,29.00
2023-05-22T05:18:28.048Z,27.40
2023-05-22T05:20:00.299Z,27.77
2023-05-22T05:21:32.078Z,27.37
2023-05-22T05:23:05.673Z,27.60
2023-05-22T05:24:37.432Z,27.30
2023-05-22T05:26:09.413Z,28.10
2023-05-22T05:27:41.327Z,29.03
2023-05-22T05:29:14.129Z,27.90
2023-05-22T05:30:52.996Z,27.53
2023-05-22T05:32:47.488Z,27.93
2023-05-22T05:34:31.322Z,27.60
2023-05-22T05:36:07.509Z,27.87
2023-05-22T05:37:41.592Z,29.03
2023-05-22T05:39:13.555Z,27.90
2023-05-22T05:40:46.049Z,29.67
2023-05-22T05:42:18.098Z,29.63
2023-05-22T05:43:53.846Z,27.37
2023-05-22T05:45:26.229Z,28.93
2023-05-22T05:46:58.504Z,30.07
2023-05-22T05:48:31.474Z,30.80
2023-05-22T05:50:04.314Z,31.20
2023-05-22T05:51:38.669Z,29.93
2023-05-22T05:53:11.568Z,31.57
2023-05-22T05:54:47.481Z,32.23
2023-05-22T05:56:21.539Z,30.73
2023-05-22T05:57:54.420Z,32.97
2023-05-22T05:59:33.244Z,32.40
2023-05-22T06:01:26.128Z,33.20
2023-05-22T06:02:59.390Z,31.93
2023-05-22T06:04:51.448Z,31.60
2023-05-22T06:06:26.141Z,28.77
2023-05-22T06:08:10.187Z,29.60
2023-05-22T06:09:42.185Z,29.20
2023-05-22T06:11:13.909Z,29.17
2023-05-22T06:12:55.706Z,29.57
2023-05-22T06:14:27.492Z,27.33
2023-05-22T06:16:01.821Z,27.40
2023-05-22T06:17:37.393Z,28.67
2023-05-22T06:19:09.325Z,28.13
2023-05-22T06:20:41.584Z,27.57
2023-05-22T06:22:13.580Z,27.30
2023-05-22T06:23:48.560Z,29.10
2023-05-22T06:25:20.890Z,26.67
2023-05-22T06:26:53.792Z,28.67
2023-05-22T06:28:25.727Z,27.90
2023-05-22T06:29:57.857Z,27.60
2023-05-22T06:31:35.378Z,26.37
2023-05-22T06:33:08.858Z,27.87
2023-05-22T06:34:40.848Z,27.13
2023-05-22T06:36:13.598Z,26.53
2023-05-22T06:37:45.408Z,26.97
2023-05-22T06:39:18.407Z,28.27
2023-05-22T06:41:16.088Z,28.03
2023-05-22T06:42:47.981Z,29.00
2023-05-22T06:44:44.028Z,27.50
2023-05-22T06:46:16.278Z,28.70
2023-05-22T06:47:56.425Z,28.57
2023-05-22T06:49:28.302Z,29.77
2023-05-22T06:51:00.922Z,27.73
2023-05-22T06:52:33.731Z,27.60
2023-05-22T06:54:08.030Z,29.50
2023-05-22T06:55:41.910Z,28.53
2023-05-22T06:57:18.738Z,30.87
2023-05-22T06:58:50.741Z,30.47
2023-05-22T07:00:24.154Z,27.97
2023-05-22T07:02:05.744Z,26.80
2023-05-22T07:03:58.036Z,29.60
2023-05-22T07:05:41.684Z,28.67
2023-05-22T07:07:13.464Z,27.90
2023-05-22T07:08:45.213Z,27.93
2023-05-22T07:10:17.008Z,29.10
2023-05-22T07:11:48.999Z,28.90
2023-05-22T07:13:21.734Z,30.33
2023-05-22T07:14:54.244Z,31.50
2023-05-22T07:16:29.856Z,30.47
2023-05-22T07:18:01.852Z,29.37
2023-05-22T07:19:35.606Z,29.20
2023-05-22T07:21:09.221Z,30.53
2023-05-22T07:22:40.955Z,30.53
2023-05-22T07:24:12.707Z,29.83
2023-05-22T07:25:46.261Z,32.00
2023-05-22T07:27:20.228Z,31.93
2023-05-22T07:28:54.008Z,31.40
2023-05-22T07:30:25.768Z,30.53
2023-05-22T07:31:57.696Z,30.30
2023-05-22T07:33:31.051Z,29.20
2023-05-22T07:35:03.031Z,31.00
2023-05-22T07:36:35.565Z,32.80
2023-05-22T07:38:08.103Z,30.93
2023-05-22T07:39:40.784Z,30.80
2023-05-22T07:41:12.954Z,32.47
2023-05-22T07:42:44.729Z,30.97
2023-05-22T07:44:18.178Z,31.13
2023-05-22T07:45:53.958Z,29.60
2023-05-22T07:47:29.143Z,28.93
2023-05-22T07:49:01.351Z,29.77
2023-05-22T07:50:33.571Z,29.63
2023-05-22T07:52:05.781Z,28.93
2023-05-22T07:53:37.638Z,29.33
2023-05-22T07:55:10.321Z,29.13
2023-05-22T07:56:45.640Z,28.87
2023-05-22T07:58:18.034Z,30.50
2023-05-22T07:59:51.213Z,29.40
2023-05-22T08:01:24.086Z,29.70
2023-05-22T08:02:56.498Z,30.80
2023-05-22T08:04:30.114Z,30.77
2023-05-22T08:06:03.551Z,28.00
2023-05-22T08:07:36.205Z,30.57
2023-05-22T08:09:08.403Z,31.33
2023-05-22T08:12:15.147Z,31.20
2023-05-22T08:13:47.312Z,28.80
2023-05-22T08:15:19.241Z,28.57
2023-05-22T08:16:51.150Z,27.10
2023-05-22T08:18:22.962Z,27.47
2023-05-22T08:19:54.761Z,29.00
2023-05-22T08:21:26.636Z,28.50
2023-05-22T08:22:59.175Z,28.23
2023-05-22T08:24:31.332Z,29.50
2023-05-22T08:26:03.281Z,28.07
2023-05-22T08:27:35.108Z,29.63
2023-05-22T08:29:07.003Z,28.37
2023-05-22T08:30:38.969Z,31.00
2023-05-22T08:32:10.817Z,29.83
2023-05-22T08:33:42.603Z,29.80
2023-05-22T08:35:14.479Z,29.93
2023-05-22T08:36:46.305Z,30.73
2023-05-22T08:38:18.192Z,31.30
2023-05-22T08:39:49.914Z,30.10
2023-05-22T08:41:21.958Z,31.70
2023-05-22T08:42:54.915Z,29.43
2023-05-22T08:44:26.796Z,32.47
2023-05-22T08:46:08.540Z,31.63
2023-05-22T08:47:44.023Z,30.63
2023-05-22T08:49:17.121Z,31.03
2023-05-22T08:50:57.474Z,33.70
2023-05-22T08:52:47.946Z,33.10
2023-05-22T08:54:23.069Z,34.20
2023-05-22T08:55:55.296Z,32.90
2023-05-22T08:57:27.125Z,32.97
2023-05-22T08:59:00.094Z,33.50
2023-05-22T09:00:32.544Z,33.23
2023-05-22T09:02:06.776Z,32.23
2023-05-22T09:03:39.209Z,32.50
2023-05-22T09:05:12.218Z,32.13
2023-05-22T09:06:47.298Z,33.70
2023-05-22T09:08:20.871Z,35.00
2023-05-22T09:09:53.129Z,33.43
2023-05-22T09:11:26.125Z,33.10
2023-05-22T09:13:09.222Z,32.87
2023-05-22T09:14:44.552Z,33.40
2023-05-22T09:16:16.295Z,32.80
2023-05-22T09:17:48.019Z,35.17
2023-05-22T09:19:19.899Z,35.73
2023-05-22T09:20:51.815Z,34.50
2023-05-22T09:22:24.480Z,34.23
2023-05-22T09:24:01.115Z,33.33
2023-05-22T09:25:32.974Z,34.27
2023-05-22T09:27:07.021Z,34.00
2023-05-22T09:28:38.734Z,33.73
2023-05-22T09:30:10.969Z,33.43
2023-05-22T09:31:44.015Z,32.83
2023-05-22T09:33:18.069Z,35.03
2023-05-22T09:34:50.582Z,33.63
2023-05-22T09:36:22.940Z,34.20
2023-05-22T09:37:56.042Z,34.60
2023-05-22T09:39:43.220Z,35.63
2023-05-22T09:41:22.276Z,35.33
2023-05-22T09:42:54.033Z,32.97
2023-05-22T09:44:26.920Z,37.40
2023-05-22T09:46:02.349Z,35.50
2023-05-22T09:47:35.711Z,36.23
2023-05-22T09:49:07.497Z,33.50
2023-05-22T09:50:42.783Z,35.10
2023-05-22T09:52:16.404Z,37.13
2023-05-22T09:53:49.881Z,34.17
2023-05-22T09:55:26.591Z,35.07
2023-05-22T09:57:00.607Z,33.60
2023-05-22T09:58:35.579Z,35.00
2023-05-22T10:00:11.796Z,33.93
2023-05-22T10:01:45.593Z,32.10
2023-05-22T10:03:22.736Z,36.03
2023-05-22T10:04:54.904Z,34.80
2023-05-22T10:06:28.676Z,34.70
2023-05-22T10:08:10.443Z,33.87
2023-05-22T10:09:43.263Z,33.40
2023-05-22T10:11:15.700Z,33.33
2023-05-22T10:12:57.504Z,31.87
2023-05-22T10:14:30.921Z,31.40
2023-05-22T10:16:04.557Z,29.87
2023-05-22T10:17:37.967Z,31.10
2023-05-22T10:19:11.569Z,30.90
2023-05-22T10:20:44.821Z,29.80
2023-05-22T10:22:20.767Z,30.60
2023-05-22T10:23:53.376Z,30.30
2023-05-22T10:25:26.025Z,30.63
2023-05-22T10:26:59.469Z,31.73
2023-05-22T10:28:41.866Z,30.80
2023-05-22T10:30:37.711Z,32.90
2023-05-22T10:32:41.651Z,30.53
2023-05-22T10:34:48.994Z,32.27
2023-05-22T10:36:34.935Z,31.90
2023-05-22T10:38:25.189Z,35.87
2023-05-22T10:40:05.243Z,32.60
2023-05-22T10:41:37.090Z,33.80
2023-05-22T10:43:09.299Z,32.73
2023-05-22T10:44:41.630Z,33.47
2023-05-22T10:46:13.545Z,33.17
2023-05-22T10:47:45.443Z,33.30
2023-05-22T10:49:24.204Z,33.93
2023-05-22T10:50:57.212Z,33.00
2023-05-22T10:52:29.958Z,33.63
2023-05-22T10:54:02.496Z,32.00
2023-05-22T10:55:56.669Z,32.10
2023-05-22T10:57:35.770Z,33.23
2023-05-22T10:59:10.519Z,32.37
2023-05-22T11:00:42.472Z,34.63
2023-05-22T11:02:22.391Z,34.60
2023-05-22T11:03:59.377Z,32.00
2023-05-22T11:05:31.259Z,34.00
2023-05-22T11:07:05.337Z,34.87
2023-05-22T11:08:38.390Z,34.87
2023-05-22T11:10:10.371Z,35.30
2023-05-22T11:11:42.122Z,33.97
2023-05-22T11:13:14.134Z,35.20
2023-05-22T11:14:59.660Z,34.33
2023-05-22T11:16:34.821Z,33.70
2023-05-22T11:18:06.749Z,33.70
2023-05-22T11:19:41.398Z,35.27
2023-05-22T11:21:13.690Z,34.60
2023-05-22T11:22:57.987Z,34.17
2023-05-22T11:24:36.769Z,37.47
2023-05-22T11:26:22.510Z,34.30
2023-05-22T11:27:56.260Z,34.43
2023-05-22T11:29:29.277Z,35.63
2023-05-22T11:31:01.942Z,37.03
2023-05-22T11:32:36.302Z,36.50
2023-05-22T11:34:08.685Z,36.67
2023-05-22T11:35:41.404Z,34.90
2023-05-22T11:37:13.427Z,36.00
2023-05-22T11:38:45.232Z,35.50
2023-05-22T11:40:19.370Z,36.33
2023-05-22T11:41:51.192Z,34.83
2023-05-22T11:43:33.073Z,36.70
2023-05-22T11:45:05.743Z,37.23
2023-05-22T11:46:39.709Z,36.80
2023-05-22T11:48:13.924Z,38.53
2023-05-22T11:49:47.205Z,37.70
2023-05-22T11:51:22.740Z,36.63
2023-05-22T11:52:56.218Z,38.13
2023-05-22T11:54:32.232Z,39.57
2023-05-22T11:56:05.652Z,36.53
2023-05-22T11:57:38.217Z,39.80
2023-05-22T11:59:12.618Z,37.03
2023-05-22T12:00:44.433Z,39.10
2023-05-22T12:02:16.937Z,38.13
2023-05-22T12:03:48.812Z,38.10
2023-05-22T12:05:21.682Z,37.13
2023-05-22T12:06:54.548Z,38.00
2023-05-22T12:08:26.689Z,38.27
2023-05-22T12:09:58.845Z,39.57
2023-05-22T12:11:35.081Z,39.93
2023-05-22T12:13:07.392Z,37.17
2023-05-22T12:14:39.189Z,37.53
2023-05-22T12:16:23.654Z,38.37
2023-05-22T12:17:56.369Z,38.60
2023-05-22T12:19:28.284Z,38.87
2023-05-22T12:21:00.043Z,36.67
2023-05-22T12:22:31.868Z,39.13
2023-05-22T12:24:04.966Z,37.90
2023-05-22T12:25:39.741Z,39.97
2023-05-22T12:27:12.337Z,40.17
2023-05-22T12:28:44.536Z,40.97
2023-05-22T12:30:16.969Z,39.30
2023-05-22T12:31:48.834Z,40.63
2023-05-22T12:33:25.174Z,40.10
2023-05-22T12:34:58.775Z,40.57
2023-05-22T12:36:44.220Z,41.03
2023-05-22T12:38:16.031Z,40.33
2023-05-22T12:39:55.602Z,41.00
2023-05-22T12:41:27.329Z,40.17
2023-05-22T12:42:59.227Z,41.50
2023-05-22T12:44:30.988Z,39.33
2023-05-22T12:46:03.151Z,40.60
2023-05-22T12:47:34.956Z,39.63
2023-05-22T12:49:06.869Z,41.50
2023-05-22T12:50:38.893Z,42.30
2023-05-22T12:52:10.787Z,42.77
2023-05-22T12:53:42.499Z,42.40
2023-05-22T12:55:14.420Z,40.97
2023-05-22T12:56:46.112Z,42.40
2023-05-22T12:58:17.836Z,43.93
2023-05-22T12:59:49.534Z,41.30
2023-05-22T13:01:22.478Z,43.27
2023-05-22T13:02:54.578Z,43.43
2023-05-22T13:04:26.498Z,42.40
2023-05-22T13:06:01.127Z,43.23
2023-05-22T13:07:33.334Z,40.60
2023-05-22T13:09:05.154Z,41.97
2023-05-22T13:10:38.362Z,41.83
2023-05-22T13:12:11.204Z,42.07
2023-05-22T13:13:43.055Z,43.30
2023-05-22T13:15:15.956Z,42.53
2023-05-22T13:16:47.671Z,44.67
2023-05-22T13:18:19.480Z,42.83
2023-05-22T13:19:51.469Z,42.70
2023-05-22T13:21:25.203Z,42.20
2023-05-22T13:22:58.263Z,44.97
2023-05-22T13:24:30.142Z,43.73
2023-05-22T13:26:02.976Z,45.20
2023-05-22T13:27:34.696Z,44.77
2023-05-22T13:29:06.514Z,43.33
2023-05-22T13:30:38.370Z,44.70
2023-05-22T13:32:13.070Z,42.87
2023-05-22T13:33:44.831Z,44.83
2023-05-22T13:35:16.702Z,43.83
2023-05-22T13:36:48.526Z,45.50
2023-05-22T13:38:20.806Z,44.03
2023-05-22T13:39:54.737Z,43.80
2023-05-22T13:41:26.711Z,45.80
2023-05-22T13:42:58.659Z,44.00
2023-05-22T13:44:30.443Z,43.17
2023-05-22T13:46:02.142Z,44.60
2023-05-22T13:47:34.668Z,45.27
2023-05-22T13:49:06.438Z,45.90
2023-05-22T13:50:38.300Z,43.83
2023-05-22T13:52:10.051Z,44.90
2023-05-22T13:53:41.806Z,45.30
2023-05-22T13:55:13.637Z,44.33
2023-05-22T13:56:45.694Z,46.30
2023-05-22T13:58:17.490Z,43.10
2023-05-22T13:59:49.318Z,44.27
2023-05-22T14:01:21.126Z,44.53
2023-05-22T14:02:52.972Z,42.43
2023-05-22T14:04:24.956Z,44.03
2023-05-22T14:05:56.718Z,44.97
2023-05-22T14:07:31.214Z,43.50
2023-05-22T14:09:05.965Z,44.10
2023-05-22T14:10:38.551Z,42.43
2023-05-22T14:12:10.312Z,43.63
2023-05-22T14:13:42.578Z,40.90
2023-05-22T14:15:16.031Z,42.97
2023-05-22T14:16:47.844Z,43.90
2023-05-22T14:18:19.861Z,43.80
2023-05-22T14:19:51.776Z,41.13
2023-05-22T14:21:23.516Z,41.57
2023-05-22T14:22:58.201Z,41.90
2023-05-22T14:24:30.555Z,38.80
2023-05-22T14:26:02.296Z,40.23
2023-05-22T14:27:34.042Z,39.17
2023-05-22T14:29:05.993Z,38.90
2023-05-22T14:30:38.717Z,38.33
2023-05-22T14:32:10.483Z,36.10
2023-05-22T14:33:42.433Z,38.90
2023-05-22T14:35:14.153Z,39.20
2023-05-22T14:36:46.352Z,38.50
2023-05-22T14:38:18.260Z,38.07
2023-05-22T14:39:50.049Z,36.83
2023-05-22T14:41:21.906Z,38.20
2023-05-22T14:42:54.479Z,36.13
2023-05-22T14:44:26.368Z,36.30
2023-05-22T14:45:59.397Z,33.30
2023-05-22T14:47:31.763Z,33.60
2023-05-22T14:49:03.827Z,32.47
2023-05-22T14:50:35.856Z,31.20
2023-05-22T14:52:09.792Z,31.03
2023-05-22T14:53:41.616Z,28.57
2023-05-22T14:55:13.403Z,28.80
2023-05-22T14:56:48.874Z,28.67
2023-05-22T14:58:21.655Z,30.23
2023-05-22T14:59:53.481Z,28.40
2023-05-22T15:01:25.245Z,28.43
2023-05-22T15:02:57.869Z,29.17
2023-05-22T15:04:35.283Z,27.23
2023-05-22T15:06:07.195Z,27.17
2023-05-22T15:07:44.639Z,27.10
2023-05-22T15:09:17.394Z,27.30
2023-05-22T15:10:49.421Z,26.07
2023-05-22T15:12:22.596Z,25.83
2023-05-22T15:13:54.494Z,24.60
2023-05-22T15:15:26.241Z,26.13
2023-05-22T15:17:01.085Z,27.30
2023-05-22T15:18:32.816Z,26.57
2023-05-22T15:20:09.110Z,25.07
2023-05-22T15:21:42.091Z,25.47
2023-05-22T15:23:13.885Z,25.07
2023-05-22T15:24:47.567Z,23.57
2023-05-22T15:26:19.333Z,23.67
2023-05-22T15:27:51.412Z,23.40
2023-05-22T15:29:23.126Z,22.90
2023-05-22T15:30:54.823Z,23.37
2023-05-22T15:32:26.661Z,25.63
2023-05-22T15:33:58.417Z,23.50
2023-05-22T15:35:33.094Z,25.00
2023-05-22T15:37:04.911Z,22.60
2023-05-22T15:38:36.635Z,23.77
2023-05-22T15:40:11.062Z,22.73
2023-05-22T15:41:48.817Z,23.50
2023-05-22T15:43:27.126Z,23.07
2023-05-22T15:45:00.174Z,22.00
2023-05-22T15:46:32.040Z,22.10
2023-05-22T15:48:05.288Z,22.40
2023-05-22T15:49:37.081Z,22.53
2023-05-22T15:51:09.621Z,21.20
2023-05-22T15:52:41.403Z,23.03
2023-05-22T15:54:13.160Z,20.80
2023-05-22T15:55:44.897Z,22.50
2023-05-22T15:57:16.745Z,21.83
2023-05-22T15:58:48.473Z,22.13
2023-05-22T16:00:21.425Z,21.00
2023-05-22T16:01:53.242Z,21.33
2023-05-22T16:03:25.155Z,24.50
2023-05-22T16:04:56.912Z,22.40
2023-05-22T16:06:28.696Z,22.13
2023-05-22T16:08:00.529Z,22.40
2023-05-22T16:09:32.836Z,20.20
2023-05-22T16:11:04.772Z,21.60
2023-05-22T16:12:38.976Z,21.73
2023-05-22T16:14:10.693Z,21.93
2023-05-22T16:15:43.680Z,22.17
2023-05-22T16:17:15.763Z,20.77
2023-05-22T16:18:47.479Z,21.77
2023-05-22T16:20:20.310Z,20.77
2023-05-22T16:21:53.623Z,21.40
2023-05-22T16:23:25.470Z,21.37
2023-05-22T16:24:57.158Z,20.00
2023-05-22T16:26:28.847Z,20.03
2023-05-22T16:28:00.665Z,19.73
2023-05-22T16:29:32.692Z,19.50
2023-05-22T16:31:06.057Z,19.60
2023-05-22T16:32:38.364Z,19.27
2023-05-22T16:34:10.160Z,19.73
2023-05-22T16:35:46.848Z,18.67
2023-05-22T16:37:18.636Z,18.17
2023-05-22T16:38:50.310Z,16.63
2023-05-22T16:40:22.058Z,15.47
2023-05-22T16:41:54.114Z,13.73
2023-05-22T16:43:25.972Z,14.20
2023-05-22T16:44:57.672Z,12.50
2023-05-22T16:46:29.508Z,12.53
2023-05-22T16:48:01.564Z,12.17
2023-05-22T16:49:33.428Z,12.33
2023-05-22T16:51:05.270Z,12.00
2023-05-22T16:52:37.029Z,13.00
2023-05-22T16:54:08.762Z,12.17
2023-05-22T16:55:40.963Z,11.33
2023-05-22T16:57:12.876Z,11.10
2023-05-22T16:58:45.097Z,10.80
2023-05-22T17:00:17.325Z,11.03
2023-05-22T17:01:49.214Z,9.83
2023-05-22T17:03:21.270Z,10.93
2023-05-22T17:04:54.370Z,10.23
2023-05-22T17:06:27.576Z,10.13
2023-05-22T17:07:59.293Z,11.37
2023-05-22T17:09:31.530Z,12.20
2023-05-22T17:11:03.293Z,12.43
2023-05-22T17:12:34.991Z,12.57
2023-05-22T17:14:06.725Z,11.20
2023-05-22T17:15:38.590Z,13.20
2023-05-22T17:17:10.421Z,13.77
2023-05-22T17:18:42.213Z,13.67
2023-05-22T17:20:13.994Z,13.90
2023-05-22T17:21:46.019Z,14.63
2023-05-22T17:23:18.261Z,13.50
2023-05-22T17:24:50.491Z,14.20
2023-05-22T17:26:22.399Z,14.10
2023-05-22T17:27:54.102Z,14.00
2023-05-22T17:29:27.951Z,13.80
2023-05-22T17:31:00.540Z,12.67
2023-05-22T17:32:32.512Z,12.77
2023-05-22T17:34:04.626Z,12.60
2023-05-22T17:35:36.409Z,12.97
2023-05-22T17:37:08.146Z,12.87
2023-05-22T17:38:39.869Z,12.20
2023-05-22T17:40:11.684Z,14.30
2023-05-22T17:41:43.449Z,14.00
2023-05-22T17:43:16.505Z,14.00
2023-05-22T17:44:48.238Z,14.23
2023-05-22T17:46:19.984Z,12.83
2023-05-22T17:47:51.909Z,14.00
2023-05-22T17:49:23.803Z,14.40
2023-05-22T17:50:55.951Z,14.33
2023-05-22T17:52:27.672Z,14.13
2023-05-22T17:53:59.460Z,14.63
2023-05-22T17:55:31.327Z,13.20
2023-05-22T17:57:04.066Z,14.27
2023-05-22T17:58:35.946Z,14.40
2023-05-22T18:00:09.961Z,14.03
2023-05-22T18:01:44.447Z,13.80
2023-05-22T18:03:21.247Z,14.00
2023-05-22T18:04:55.590Z,14.00
2023-05-22T18:06:27.767Z,14.90
2023-05-22T18:08:00.502Z,15.40
2023-05-22T18:09:32.761Z,14.10
2023-05-22T18:11:22.541Z,15.80
2023-05-22T18:12:57.348Z,15.47
2023-05-22T18:14:29.550Z,15.90
2023-05-22T18:16:02.931Z,15.47
2023-05-22T18:17:39.502Z,14.97
2023-05-22T18:19:11.591Z,15.37
2023-05-22T18:20:44.193Z,15.27
2023-05-22T18:22:16.121Z,14.10
2023-05-22T18:23:47.906Z,15.83
2023-05-22T18:25:19.850Z,15.90
2023-05-22T18:26:51.712Z,15.60
2023-05-22T18:28:27.373Z,14.57
2023-05-22T18:29:59.409Z,14.80
2023-05-22T18:31:31.310Z,15.13
2023-05-22T18:33:03.791Z,14.17
2023-05-22T18:34:37.668Z,16.47
2023-05-22T18:36:09.689Z,16.03
2023-05-22T18:37:42.072Z,14.70
2023-05-22T18:39:14.840Z,14.50
2023-05-22T18:40:47.198Z,14.73
2023-05-22T18:42:19.152Z,13.53
2023-05-22T18:43:53.082Z,13.93
2023-05-22T18:45:25.125Z,13.93
2023-05-22T18:46:57.218Z,13.30
2023-05-22T18:48:30.904Z,12.70
2023-05-22T18:50:04.041Z,12.73
2023-05-22T18:51:37.131Z,12.97
2023-05-22T18:53:10.105Z,13.50
2023-05-22T18:54:42.057Z,13.40
2023-05-22T18:56:14.001Z,12.33
2023-05-22T18:57:45.891Z,13.30
2023-05-22T18:59:18.121Z,12.20
2023-05-22T19:00:52.048Z,11.83
2023-05-22T19:02:24.157Z,12.23
2023-05-22T19:03:56.144Z,12.67
2023-05-22T19:05:28.343Z,12.57
2023-05-22T19:07:00.246Z,12.30
2023-05-22T19:08:33.689Z,13.03
2023-05-22T19:10:08.085Z,11.47
2023-05-22T19:11:40.231Z,11.70
2023-05-22T19:13:12.158Z,11.33
2023-05-22T19:14:44.161Z,11.60
2023-05-22T19:16:16.302Z,10.80
2023-05-22T19:17:48.494Z,10.63
2023-05-22T19:19:20.507Z,10.53
2023-05-22T19:20:52.400Z,9.10
2023-05-22T19:22:27.381Z,9.00
2023-05-22T19:25:50.041Z,7.77
2023-05-22T19:27:25.360Z,6.60
2023-05-22T19:28:59.274Z,6.17
2023-05-22T19:30:35.153Z,6.30
2023-05-22T19:32:09.834Z,5.90
2023-05-22T19:33:41.798Z,5.73
2023-05-22T19:35:15.681Z,5.40
2023-05-22T19:36:55.335Z,6.47
2023-05-22T19:38:27.459Z,6.47
2023-05-22T19:39:59.312Z,6.67
2023-05-22T19:41:31.293Z,6.40
2023-05-22T19:43:03.241Z,6.50
2023-05-22T19:44:35.101Z,5.93
2023-05-22T19:46:08.851Z,5.67
2023-05-22T19:47:41.367Z,5.10
2023-05-22T19:49:13.933Z,5.70
2023-05-22T19:50:48.848Z,5.27
2023-05-22T19:52:32.891Z,5.70
2023-05-22T19:54:10.792Z,5.10
2023-05-22T19:55:42.643Z,5.30
2023-05-22T19:57:22.157Z,4.90
2023-05-22T19:58:53.876Z,4.77
2023-05-22T20:00:29.274Z,4.60
2023-05-22T20:02:01.048Z,5.07
2023-05-22T20:03:32.934Z,5.13
2023-05-22T20:05:05.107Z,5.10
2023-05-22T20:06:36.935Z,5.00
2023-05-22T20:08:10.127Z,4.33
2023-05-22T20:09:41.923Z,4.90
2023-05-22T20:11:13.678Z,5.27
2023-05-22T20:12:45.856Z,4.97
2023-05-22T20:14:17.608Z,4.30
2023-05-22T20:15:51.203Z,4.90
2023-05-22T20:17:23.100Z,4.40